createdAt,value
2022-09-28T00:01:58.962Z,99860.58
2022-09-28T00:04:49.191Z,99862.45
2022-09-28T00:07:38.932Z,99859.56
2022-09-28T00:10:28.948Z,99856.38
2022-09-28T00:13:19.221Z,99856.27
2022-09-28T00:16:11.948Z,99855.11
2022-09-28T00:19:03.024Z,99854.79
2022-09-28T00:21:53.340Z,99859.64
2022-09-28T00:24:43.090Z,99855.60
2022-09-28T00:27:33.351Z,99855.15
2022-09-28T00:30:23.074Z,99852.83
2022-09-28T00:33:13.407Z,99849.03
2022-09-28T00:36:04.339Z,99851.98
2022-09-28T00:38:55.476Z,99848.41
2022-09-28T00:41:46.840Z,99847.32
2022-09-28T00:44:52.764Z,99852.13
2022-09-28T00:47:56.420Z,99855.85
2022-09-28T00:50:46.681Z,99854.23
2022-09-28T00:53:41.769Z,99849.40
2022-09-28T00:56:35.860Z,99845.89
2022-09-28T00:59:26.844Z,99840.30
2022-09-28T01:02:17.232Z,99837.31
2022-09-28T01:05:10.272Z,99836.34
2022-09-28T01:08:02.726Z,99835.48
2022-09-28T01:10:53.127Z,99837.64
2022-09-28T01:13:44.503Z,99833.36
2022-09-28T01:16:42.873Z,99824.21
2022-09-28T01:20:07.925Z,99820.18
2022-09-28T01:23:31.983Z,99818.23
2022-09-28T01:26:38.250Z,99816.91
2022-09-28T01:29:46.962Z,99816.31
2022-09-28T01:32:43.798Z,99808.14
2022-09-28T01:35:37.977Z,99800.72
2022-09-28T01:38:31.687Z,99796.59
2022-09-28T01:41:24.931Z,99792.98
2022-09-28T01:44:19.395Z,99794.10
2022-09-28T01:47:11.688Z,99795.61
2022-09-28T01:50:07.909Z,99787.98
2022-09-28T01:53:02.254Z,99782.83
2022-09-28T01:55:56.027Z,99785.70
2022-09-28T01:58:50.769Z,99778.98
2022-09-28T02:01:43.987Z,99774.52
2022-09-28T02:04:39.629Z,99778.27
2022-09-28T02:07:38.135Z,99773.16
2022-09-28T02:10:33.432Z,99769.09
2022-09-28T02:13:29.610Z,99774.68
2022-09-28T02:16:24.605Z,99773.65
2022-09-28T02:19:19.078Z,99773.58
2022-09-28T02:22:23.469Z,99775.86
2022-09-28T02:25:22.245Z,99776.16
2022-09-28T02:28:14.608Z,99776.40
2022-09-28T02:31:04.655Z,99774.64
2022-09-28T02:33:56.319Z,99770.93
2022-09-28T02:36:48.046Z,99767.90
2022-09-28T02:39:38.660Z,99765.71
2022-09-28T02:42:35.791Z,99763.58
2022-09-28T02:45:47.269Z,99760.27
2022-09-28T02:49:20.422Z,99754.27
2022-09-28T02:52:25.826Z,99757.46
2022-09-28T02:55:30.140Z,99756.77
2022-09-28T02:58:35.409Z,99765.42
2022-09-28T03:01:31.205Z,99771.00
2022-09-28T03:04:37.369Z,99770.23
2022-09-28T03:07:34.747Z,99764.72
2022-09-28T03:10:32.931Z,99755.83
2022-09-28T03:13:23.715Z,99755.05
2022-09-28T03:16:15.989Z,99759.42
2022-09-28T03:19:06.776Z,99754.81
2022-09-28T03:21:57.001Z,99741.52
2022-09-28T03:24:46.822Z,99733.67
2022-09-28T03:27:37.346Z,99733.64
2022-09-28T03:30:27.920Z,99728.83
2022-09-28T03:33:19.721Z,99724.58
2022-09-28T03:36:10.987Z,99723.16
2022-09-28T03:39:01.059Z,99720.34
2022-09-28T03:41:51.035Z,99714.46
2022-09-28T03:44:41.666Z,99707.65
2022-09-28T03:47:31.507Z,99701.61
2022-09-28T03:50:22.001Z,99700.67
2022-09-28T03:53:11.874Z,99693.81
2022-09-28T03:56:06.007Z,99695.21
2022-09-28T03:58:55.979Z,99696.94
2022-09-28T04:01:46.599Z,99692.89
2022-09-28T04:04:36.965Z,99691.55
2022-09-28T04:07:30.908Z,99697.38
2022-09-28T04:10:22.073Z,99701.70
2022-09-28T04:13:12.472Z,99700.69
2022-09-28T04:16:05.106Z,99698.20
2022-09-28T04:18:57.210Z,99698.36
2022-09-28T04:21:55.990Z,99704.27
2022-09-28T04:24:46.645Z,99698.52
2022-09-28T04:27:54.589Z,99693.51
2022-09-28T04:30:44.404Z,99688.24
2022-09-28T04:33:34.609Z,99693.73
2022-09-28T04:36:25.331Z,99695.88
2022-09-28T04:39:17.101Z,99693.95
2022-09-28T04:42:12.965Z,99691.19
2022-09-28T04:45:05.042Z,99692.70
2022-09-28T04:47:59.263Z,99691.79
2022-09-28T04:51:13.337Z,99690.45
2022-09-28T04:54:03.486Z,99683.03
2022-09-28T04:56:55.527Z,99676.58
2022-09-28T04:59:45.770Z,99674.16
2022-09-28T05:02:35.854Z,99674.85
2022-09-28T05:05:49.120Z,99678.67
2022-09-28T05:08:59.848Z,99685.81
2022-09-28T05:11:53.099Z,99682.02
2022-09-28T05:14:45.722Z,99678.77
2022-09-28T05:17:35.543Z,99674.67
2022-09-28T05:20:58.134Z,99675.25
2022-09-28T05:23:50.549Z,99677.95
2022-09-28T05:26:40.864Z,99677.95
2022-09-28T05:29:33.004Z,99673.23
2022-09-28T05:32:44.543Z,99672.14
2022-09-28T05:35:42.263Z,99673.53
2022-09-28T05:38:32.383Z,99669.68
2022-09-28T05:41:22.396Z,99665.13
2022-09-28T05:44:13.131Z,99663.81
2022-09-28T05:47:03.123Z,99662.73
2022-09-28T05:49:53.105Z,99657.41
2022-09-28T05:52:43.327Z,99654.48
2022-09-28T05:55:33.876Z,99651.77
2022-09-28T05:58:24.111Z,99648.92
2022-09-28T06:01:14.499Z,99648.00
2022-09-28T06:04:05.155Z,99650.61
2022-09-28T06:06:55.208Z,99656.91
2022-09-28T06:09:45.762Z,99663.26
2022-09-28T06:12:52.921Z,99662.70
2022-09-28T06:15:44.974Z,99662.26
2022-09-28T06:18:35.457Z,99660.05
2022-09-28T06:21:48.747Z,99660.38
2022-09-28T06:24:38.544Z,99652.86
2022-09-28T06:27:28.569Z,99647.77
2022-09-28T06:30:18.961Z,99650.98
2022-09-28T06:33:12.713Z,99653.23
2022-09-28T06:36:03.462Z,99657.70
2022-09-28T06:38:54.179Z,99656.35
2022-09-28T06:41:44.742Z,99652.96
2022-09-28T06:44:40.322Z,99655.67
2022-09-28T06:47:47.474Z,99651.55
2022-09-28T06:50:47.600Z,99650.76
2022-09-28T06:53:56.697Z,99646.87
2022-09-28T06:57:15.985Z,99647.05
2022-09-28T07:00:08.007Z,99655.63
2022-09-28T07:02:58.493Z,99663.08
2022-09-28T07:06:11.419Z,99665.20
2022-09-28T07:09:42.671Z,99662.48
2022-09-28T07:12:55.282Z,99669.55
2022-09-28T07:16:04.728Z,99675.80
2022-09-28T07:18:54.714Z,99681.10
2022-09-28T07:21:58.635Z,99680.89
2022-09-28T07:24:52.392Z,99679.72
2022-09-28T07:28:01.369Z,99684.31
2022-09-28T07:30:57.870Z,99685.30
2022-09-28T07:34:08.860Z,99685.26
2022-09-28T07:37:19.042Z,99683.36
2022-09-28T07:40:30.218Z,99677.92
2022-09-28T07:43:22.603Z,99673.11
2022-09-28T07:46:14.898Z,99668.90
2022-09-28T07:49:13.044Z,99668.21
2022-09-28T07:52:17.261Z,99671.39
2022-09-28T07:55:28.468Z,99669.09
2022-09-28T07:58:49.923Z,99665.75
2022-09-28T08:01:59.061Z,99664.02
2022-09-28T08:04:49.590Z,99663.11
2022-09-28T08:07:39.671Z,99655.16
2022-09-28T08:10:32.150Z,99651.62
2022-09-28T08:13:44.151Z,99654.58
2022-09-28T08:16:57.286Z,99655.33
2022-09-28T08:20:34.218Z,99659.33
2022-09-28T08:23:24.728Z,99657.03
2022-09-28T08:26:16.351Z,99656.00
2022-09-28T08:29:08.504Z,99656.32
2022-09-28T08:32:14.965Z,99659.21
2022-09-28T08:35:34.192Z,99659.34
2022-09-28T08:38:36.053Z,99661.02
2022-09-28T08:41:56.513Z,99667.05
2022-09-28T08:45:16.191Z,99671.06
2022-09-28T08:49:06.586Z,99665.17
2022-09-28T08:52:25.354Z,99662.17
2022-09-28T08:55:27.579Z,99662.29
2022-09-28T08:58:22.532Z,99659.73
2022-09-28T09:01:18.989Z,99662.85
2022-09-28T09:04:10.237Z,99670.34
2022-09-28T09:07:44.067Z,99673.35
2022-09-28T09:10:51.661Z,99673.48
2022-09-28T09:14:15.589Z,99675.23
2022-09-28T09:17:16.401Z,99672.13
2022-09-28T09:20:40.628Z,99668.96
2022-09-28T09:23:57.214Z,99669.11
2022-09-28T09:26:51.332Z,99669.46
2022-09-28T09:30:03.872Z,99668.95
2022-09-28T09:33:08.523Z,99669.39
2022-09-28T09:36:30.732Z,99668.78
2022-09-28T09:39:59.941Z,99662.22
2022-09-28T09:43:42.155Z,99659.85
2022-09-28T09:47:08.644Z,99655.45
2022-09-28T09:50:15.292Z,99647.67
2022-09-28T09:53:15.137Z,99640.98
2022-09-28T09:56:14.585Z,99629.23
2022-09-28T09:59:33.646Z,99619.04
2022-09-28T10:02:30.116Z,99615.64
2022-09-28T10:05:31.878Z,99608.80
2022-09-28T10:08:25.114Z,99607.04
2022-09-28T10:11:18.550Z,99600.90
2022-09-28T10:14:17.289Z,99606.80
2022-09-28T10:17:16.359Z,99614.27
2022-09-28T10:20:25.696Z,99613.11
2022-09-28T10:23:26.336Z,99612.44
2022-09-28T10:26:25.048Z,99605.43
2022-09-28T10:29:21.078Z,99607.45
2022-09-28T10:32:23.982Z,99600.48
2022-09-28T10:35:26.296Z,99601.38
2022-09-28T10:38:24.824Z,99612.35
2022-09-28T10:41:19.277Z,99613.05
2022-09-28T10:44:25.249Z,99613.95
2022-09-28T10:47:33.816Z,99625.81
2022-09-28T10:50:31.306Z,99629.60
2022-09-28T10:53:36.286Z,99628.72
2022-09-28T10:56:30.342Z,99621.23
2022-09-28T10:59:40.359Z,99617.79
2022-09-28T11:02:50.626Z,99615.55
2022-09-28T11:05:44.116Z,99618.11
2022-09-28T11:08:38.427Z,99625.05
2022-09-28T11:11:31.512Z,99621.72
2022-09-28T11:14:39.617Z,99619.73
2022-09-28T11:17:38.751Z,99613.89
2022-09-28T11:20:36.695Z,99609.09
2022-09-28T11:23:31.946Z,99605.11
2022-09-28T11:26:35.761Z,99596.64
2022-09-28T11:29:32.377Z,99596.08
2022-09-28T11:32:46.526Z,99586.05
2022-09-28T11:35:51.804Z,99580.45
2022-09-28T11:38:55.431Z,99586.29
2022-09-28T11:42:23.793Z,99592.59
2022-09-28T11:45:35.403Z,99589.13
2022-09-28T11:48:31.981Z,99589.73
2022-09-28T11:51:29.273Z,99586.45
2022-09-28T11:54:29.047Z,99584.91
2022-09-28T11:57:26.441Z,99589.41
2022-09-28T12:00:21.951Z,99592.74
2022-09-28T12:03:18.408Z,99590.82
2022-09-28T12:06:16.367Z,99595.20
2022-09-28T12:09:16.052Z,99593.46
2022-09-28T12:12:26.654Z,99594.27
2022-09-28T12:15:24.357Z,99590.95
2022-09-28T12:18:21.409Z,99589.03
2022-09-28T12:21:35.040Z,99593.05
2022-09-28T12:24:28.928Z,99590.09
2022-09-28T12:27:22.697Z,99585.39
2022-09-28T12:30:20.080Z,99585.25
2022-09-28T12:33:13.257Z,99584.48
2022-09-28T12:36:17.829Z,99584.39
2022-09-28T12:39:27.481Z,99580.13
2022-09-28T12:42:45.782Z,99576.85
2022-09-28T12:46:10.337Z,99573.48
2022-09-28T12:52:50.455Z,99576.17
2022-09-28T12:55:56.591Z,99578.27
2022-09-28T12:59:01.473Z,99573.91
2022-09-28T13:02:24.950Z,99570.94
2022-09-28T13:05:57.603Z,99562.58
2022-09-28T13:09:02.715Z,99555.04
2022-09-28T13:12:29.365Z,99552.00
2022-09-28T13:15:44.900Z,99552.45
2022-09-28T13:18:42.312Z,99548.08
2022-09-28T13:21:41.389Z,99543.52
2022-09-28T13:24:37.907Z,99545.77
2022-09-28T13:27:31.266Z,99542.23
2022-09-28T13:30:21.718Z,99544.64
2022-09-28T13:33:19.975Z,99545.56
2022-09-28T13:36:47.178Z,99541.89
2022-09-28T13:39:56.557Z,99539.34
2022-09-28T13:43:04.812Z,99539.39
2022-09-28T13:46:03.288Z,99537.86
2022-09-28T13:49:06.593Z,99535.14
2022-09-28T13:52:06.342Z,99531.62
2022-09-28T13:55:33.004Z,99528.59
2022-09-28T13:58:27.580Z,99530.35
2022-09-28T14:01:22.687Z,99531.99
2022-09-28T14:04:20.061Z,99527.03
2022-09-28T14:07:17.701Z,99521.77
2022-09-28T14:10:24.654Z,99526.34
2022-09-28T14:13:34.706Z,99527.96
2022-09-28T14:16:26.838Z,99518.55
2022-09-28T14:19:23.145Z,99518.29
2022-09-28T14:22:22.433Z,99516.13
2022-09-28T14:25:19.205Z,99519.38
2022-09-28T14:28:28.563Z,99520.05
2022-09-28T14:31:26.268Z,99515.23
2022-09-28T14:34:32.607Z,99514.24
2022-09-28T14:37:45.516Z,99514.95
2022-09-28T14:41:14.406Z,99511.52
2022-09-28T14:44:10.611Z,99510.08
2022-09-28T14:47:35.329Z,99509.08
2022-09-28T14:50:27.962Z,99515.05
2022-09-28T14:53:24.110Z,99515.65
2022-09-28T14:56:15.683Z,99511.33
2022-09-28T14:59:06.548Z,99505.06
2022-09-28T15:02:01.111Z,99504.26
2022-09-28T15:04:53.690Z,99498.30
2022-09-28T15:07:49.699Z,99496.47
2022-09-28T15:10:46.254Z,99489.86
2022-09-28T15:13:36.742Z,99482.80
2022-09-28T15:16:27.347Z,99475.80
2022-09-28T15:19:29.721Z,99473.14
2022-09-28T15:22:21.474Z,99467.75
2022-09-28T15:25:16.861Z,99461.29
2022-09-28T15:28:19.359Z,99460.05
2022-09-28T15:31:18.564Z,99463.84
2022-09-28T15:34:30.775Z,99458.09
2022-09-28T15:37:24.120Z,99453.97
2022-09-28T15:40:19.421Z,99452.63
2022-09-28T15:43:27.386Z,99453.00
2022-09-28T15:46:21.897Z,99452.46
2022-09-28T15:49:26.602Z,99455.85
2022-09-28T15:52:31.563Z,99457.02
2022-09-28T15:55:26.718Z,99455.46
2022-09-28T15:58:20.909Z,99453.26
2022-09-28T16:01:37.086Z,99451.98
2022-09-28T16:04:40.210Z,99451.25
2022-09-28T16:07:35.226Z,99454.84
2022-09-28T16:10:35.094Z,99458.92
2022-09-28T16:13:25.364Z,99458.69
2022-09-28T16:16:18.089Z,99452.23
2022-09-28T16:19:23.757Z,99449.77
2022-09-28T16:22:28.588Z,99447.20
2022-09-28T16:25:23.981Z,99443.53
2022-09-28T16:28:32.409Z,99442.57
2022-09-28T16:31:39.051Z,99446.00
2022-09-28T16:34:31.897Z,99445.64
2022-09-28T16:37:34.689Z,99448.63
2022-09-28T16:40:26.356Z,99452.06
2022-09-28T16:43:27.468Z,99453.34
2022-09-28T16:46:21.696Z,99456.02
2022-09-28T16:49:19.849Z,99455.16
2022-09-28T16:52:35.239Z,99455.64
2022-09-28T16:55:41.451Z,99456.20
2022-09-28T16:58:33.331Z,99453.40
2022-09-28T17:01:24.805Z,99456.96
2022-09-28T17:04:14.783Z,99455.48
2022-09-28T17:07:05.544Z,99453.41
2022-09-28T17:09:55.423Z,99451.75
2022-09-28T17:12:45.624Z,99444.94
2022-09-28T17:15:35.977Z,99446.03
2022-09-28T17:18:26.619Z,99449.11
2022-09-28T17:21:21.107Z,99455.27
2022-09-28T17:24:11.553Z,99456.84
2022-09-28T17:27:03.306Z,99457.02
2022-09-28T17:29:53.574Z,99460.13
2022-09-28T17:32:45.802Z,99464.16
2022-09-28T17:35:39.775Z,99464.09
2022-09-28T17:38:32.307Z,99462.59
2022-09-28T17:41:23.202Z,99462.60
2022-09-28T17:44:22.186Z,99463.55
2022-09-28T17:47:17.922Z,99462.31
2022-09-28T17:50:21.450Z,99458.48
2022-09-28T17:53:20.575Z,99458.20
2022-09-28T17:56:12.211Z,99461.92
2022-09-28T17:59:05.008Z,99470.05
2022-09-28T18:01:59.398Z,99475.21
2022-09-28T18:04:53.266Z,99471.52
2022-09-28T18:07:50.134Z,99468.64
2022-09-28T18:10:43.641Z,99466.58
2022-09-28T18:13:36.031Z,99470.71
2022-09-28T18:16:28.781Z,99470.58
2022-09-28T18:19:21.097Z,99472.98
2022-09-28T18:22:11.727Z,99477.14
2022-09-28T18:25:05.509Z,99478.80
2022-09-28T18:27:59.435Z,99477.85
2022-09-28T18:30:56.814Z,99476.48
2022-09-28T18:33:49.747Z,99476.66
2022-09-28T18:36:44.622Z,99477.30
2022-09-28T18:39:40.993Z,99476.17
2022-09-28T18:42:36.304Z,99481.73
2022-09-28T18:45:33.250Z,99487.85
2022-09-28T18:48:33.408Z,99492.16
2022-09-28T18:51:28.838Z,99493.06
2022-09-28T18:54:32.207Z,99497.20
2022-09-28T18:57:26.707Z,99499.04
2022-09-28T19:00:22.394Z,99495.23
2022-09-28T19:03:20.843Z,99492.25
2022-09-28T19:06:19.449Z,99494.36
2022-09-28T19:09:12.478Z,99496.23
2022-09-28T19:12:05.737Z,99499.38
2022-09-28T19:15:01.696Z,99502.30
2022-09-28T19:17:55.823Z,99501.69
2022-09-28T19:20:45.967Z,99507.58
2022-09-28T19:23:38.975Z,99508.45
2022-09-28T19:26:36.565Z,99511.27
2022-09-28T19:29:32.109Z,99520.05
2022-09-28T19:32:22.976Z,99522.54
2022-09-28T19:35:15.906Z,99518.96
2022-09-28T19:38:08.819Z,99516.27
2022-09-28T19:41:11.230Z,99511.68
2022-09-28T19:44:08.598Z,99510.55
2022-09-28T19:47:06.768Z,99506.21
2022-09-28T19:49:59.087Z,99501.11
2022-09-28T19:52:57.691Z,99491.83
2022-09-28T19:55:54.696Z,99486.48
2022-09-28T19:58:48.654Z,99487.65
2022-09-28T20:01:40.003Z,99497.68
2022-09-28T20:04:34.474Z,99502.00
2022-09-28T20:07:28.248Z,99503.69
2022-09-28T20:10:19.628Z,99495.27
2022-09-28T20:13:09.639Z,99493.98
2022-09-28T20:16:03.512Z,99500.39
2022-09-28T20:18:57.422Z,99506.58
2022-09-28T20:21:54.549Z,99511.26
2022-09-28T20:24:55.735Z,99515.95
2022-09-28T20:27:48.672Z,99517.59
2022-09-28T20:30:42.114Z,99518.38
2022-09-28T20:33:36.882Z,99514.79
2022-09-28T20:36:34.201Z,99513.39
2022-09-28T20:39:25.950Z,99507.61
2022-09-28T20:42:17.329Z,99504.83
2022-09-28T20:45:12.999Z,99505.51
2022-09-28T20:48:09.052Z,99507.14
2022-09-28T20:51:03.946Z,99508.51
2022-09-28T20:54:01.955Z,99513.81
2022-09-28T20:56:58.121Z,99517.17
2022-09-28T20:59:55.272Z,99516.81
2022-09-28T21:02:50.063Z,99510.70
2022-09-28T21:05:42.397Z,99505.28
2022-09-28T21:08:32.461Z,99500.07
2022-09-28T21:11:28.279Z,99497.23
2022-09-28T21:14:18.887Z,99495.59
2022-09-28T21:17:11.419Z,99494.14
2022-09-28T21:20:07.127Z,99504.11
2022-09-28T21:23:03.999Z,99515.45
2022-09-28T21:26:10.766Z,99518.85
2022-09-28T21:29:08.747Z,99521.41
2022-09-28T21:32:01.502Z,99518.30
2022-09-28T21:34:57.560Z,99515.10
2022-09-28T21:37:51.981Z,99514.52
2022-09-28T21:40:44.101Z,99517.34
2022-09-28T21:43:34.699Z,99520.17
2022-09-28T21:46:34.386Z,99519.56
2022-09-28T21:49:27.057Z,99516.15
2022-09-28T21:52:18.192Z,99516.36
2022-09-28T21:55:12.213Z,99516.98
2022-09-28T21:58:03.151Z,99514.98
2022-09-28T22:01:03.107Z,99515.29
2022-09-28T22:03:55.481Z,99513.83
2022-09-28T22:06:45.188Z,99514.21
2022-09-28T22:09:37.839Z,99516.17
2022-09-28T22:12:29.339Z,99516.30
2022-09-28T22:15:20.159Z,99513.50
2022-09-28T22:18:10.234Z,99513.35
2022-09-28T22:21:06.572Z,99513.40
2022-09-28T22:24:02.046Z,99517.37
2022-09-28T22:26:52.027Z,99517.80
2022-09-28T22:29:42.577Z,99516.71
2022-09-28T22:32:32.738Z,99513.77
2022-09-28T22:35:22.702Z,99508.93
2022-09-28T22:38:13.500Z,99506.00
2022-09-28T22:41:04.112Z,99505.65
2022-09-28T22:43:56.213Z,99510.18
2022-09-28T22:46:46.289Z,99508.48
2022-09-28T22:49:36.664Z,99509.45
2022-09-28T22:52:27.158Z,99507.66
2022-09-28T22:55:17.414Z,99511.95
2022-09-28T22:58:07.230Z,99520.88
2022-09-28T23:00:57.940Z,99509.83
2022-09-28T23:03:49.068Z,99499.35
2022-09-28T23:06:39.175Z,99494.59
2022-09-28T23:09:29.275Z,99492.72
2022-09-28T23:12:19.638Z,99490.06
2022-09-28T23:15:12.319Z,99489.79
2022-09-28T23:18:02.107Z,99486.98
2022-09-28T23:20:57.243Z,99486.52
2022-09-28T23:23:47.889Z,99476.58
2022-09-28T23:26:37.996Z,99469.23
2022-09-28T23:29:28.119Z,99478.30
2022-09-28T23:32:18.516Z,99487.45
2022-09-28T23:35:10.360Z,99488.75
2022-09-28T23:38:00.252Z,99483.86
2022-09-28T23:40:50.540Z,99476.90
2022-09-28T23:43:40.523Z,99478.69
2022-09-28T23:46:30.666Z,99490.27
2022-09-28T23:49:20.637Z,99491.74
2022-09-28T23:52:10.638Z,99488.04
2022-09-28T23:55:00.539Z,99496.08
2022-09-28T23:57:50.817Z,99497.75
